Wildwood Camp, Iowa
Current Conditions -  °F | °C
As of 7:52 AM on Monday 20 Oct 2014 (Local Time) from KDVN Reporting Station
Clear Clear  
Wind Chill: 40°   Ceiling: Unl
Heat Index: 45°   Visibility: 10mi
Dew Point: 41°   Wind: 10mph
Humidity: 86%   Direction: 290°WNW
Pressure: 29.91"   Gusts: NA
Location:  41.7317°N, 90.5411°W
Report Text: KDVN 201252Z AUTO 29009KT 10SM CLR 07/05 A2991 RMK AO2 SLP130 T00720050 TSNO
Loading
Personal Weather Stations






























Interactive Weather Map New forecast layout! Learn more

10-Day Weather Forecast

Advertisements
Track Severe Weather on mobile